LIVE Streaming HD
Get Adobe Flash player
Annunci di Google
SATELLITE
Annuci di Google
Dati meteo stazione (refresh automatico ogni minuto)
Ostia(RM) VENTO: VELOCITÀ   PIOGGIA: QTA GIORNO TEMPERATURA: ATTUALE
SPOT: Kursaal Lido Ostia ---- Posizione su Googlemap:Latitudine: 41.71N Longitudine: 12.31E RAFFICA MASSIMA: QTA MENSILE: MASSIMA:
VELOCITÀ MEDIA: QTA ANNUALE: MINIMA:
DIREZIONE: UMIDITÀ: WIND CHILL:
TIPO: DEW POINT:
BEAUFORT: PRESSIONE:
I nostri partner
Ostia(RM) nelle ultime ore
Applica filtri in visualizzazione Intervallo delle letture nelle ultime

Ora Direzione Vento Velocita' Vento Media Vento Raffica Max. Temperatura Wind Chill Pioggia Pressione
23:18:00212 °(SSW)16.1 Kts18.8 Kts31.1 Kts13.6 °C11.35 °C4.32 mm0 Hpa
23:12:23243 °(WSW)14.7 Kts15.53 Kts31.1 Kts13.8 °C11.78 °C4.32 mm0 Hpa
23:07:27258 °(WSW)19.9 Kts19.03 Kts31.1 Kts13.6 °C11.05 °C4.32 mm0 Hpa
23:02:33174 °(S)17.8 Kts19.83 Kts31.1 Kts13.6 °C11.23 °C4.32 mm0 Hpa
22:57:39244 °(WSW)19.7 Kts19.33 Kts31.1 Kts13.8 °C11.31 °C4.32 mm0 Hpa
22:52:45265 °(W)17.8 Kts18.96 Kts31.1 Kts13.8 °C11.49 °C4.32 mm0 Hpa
22:47:51179 °(S)18.2 Kts20.3 Kts31.1 Kts13.6 °C11.11 °C4.32 mm0 Hpa
22:42:58268 °(W)19.7 Kts20.2 Kts31.1 Kts13.5 °C10.92 °C4.32 mm0 Hpa
22:37:59283 °(WNW)22.2 Kts25 Kts31.1 Kts13.6 °C10.81 °C4.32 mm0 Hpa
22:32:31276 °(W)20.2 Kts21.36 Kts31.1 Kts13.6 °C11.05 °C4.32 mm0 Hpa
22:27:20272 °(W)19.1 Kts20.96 Kts31.1 Kts13.3 °C10.72 °C4.32 mm0 Hpa
22:22:27289 °(WNW)16 Kts18.73 Kts31.1 Kts13.3 °C10.96 °C4.32 mm0 Hpa
22:17:330 °(N)18.3 Kts18 Kts31.1 Kts13.1 °C10.46 °C4.32 mm0 Hpa
22:12:38269 °(W)20.2 Kts21.83 Kts31.1 Kts13.1 °C10.39 °C4.32 mm0 Hpa
22:07:41247 °(WSW)22.1 Kts19.7 Kts31.1 Kts12.8 °C9.75 °C4.32 mm0 Hpa
22:02:46264 °(W)17.1 Kts17.93 Kts31.1 Kts12.6 °C9.92 °C4.32 mm0 Hpa
21:57:46314 °(NW)21 Kts20.76 Kts31.1 Kts12.5 °C9.48 °C4.32 mm0 Hpa
21:51:24179 °(S)15.4 Kts17.16 Kts31.1 Kts12.5 °C10.05 °C4.32 mm0 Hpa
21:47:54271 °(W)21.7 Kts22.23 Kts31.1 Kts12.6 °C9.48 °C4.32 mm0 Hpa
21:43:00261 °(W)19.9 Kts20.4 Kts31.1 Kts12.6 °C9.73 °C4.32 mm0 Hpa
21:37:58183 °(S)15.8 Kts18.1 Kts31.1 Kts12.6 °C10.18 °C4.32 mm0 Hpa
21:32:34257 °(WSW)14.3 Kts13.53 Kts31.1 Kts12.1 °C9.6 °C4.05 mm0 Hpa
21:27:37346 °(NNW)15 Kts13.93 Kts31.1 Kts11.8 °C9.15 °C4.05 mm0 Hpa
21:22:39266 °(W)19.8 Kts21.5 Kts31.1 Kts12.1 °C9.07 °C4.05 mm0 Hpa